Terminal Aerodrome Forecast
Issued by NWS

Current Version | Previous Version | Graphics & Text | Print | Product List | Glossary On
Versions: 1 2 3 4 5 6 7 8 9 10 11 12 13 14 15 16 17 18 19 20 21
000
FTUS41 KILN 152200 AAA
TAFLCK
TAF AMD
KLCK 152214Z 1522/1618 08012KT P6SM BKN120
     FM160000 08010KT P6SM BKN100
     FM161000 13010KT P6SM VCSH OVC040=

USA.gov is the U.S. government's official web portal to all federal, state and local government web resources and services.